createdAt,value
2023-08-30T00:00:33.213Z,94.32
2023-08-30T00:03:08.074Z,94.45
2023-08-30T00:05:39.030Z,94.72
2023-08-30T00:10:54.106Z,93.24
2023-08-30T00:19:00.095Z,91.90
2023-08-30T00:21:31.469Z,92.81
2023-08-30T00:26:45.122Z,93.78
2023-08-30T00:29:18.989Z,93.81
2023-08-30T00:31:58.668Z,93.64
2023-08-30T00:34:29.074Z,93.82
2023-08-30T00:39:46.922Z,94.10
2023-08-30T00:45:07.347Z,94.50
2023-08-30T00:47:54.978Z,94.18
2023-08-30T00:50:32.204Z,93.67
2023-08-30T00:55:59.131Z,93.50
2023-08-30T00:58:34.992Z,93.06
2023-08-30T01:01:10.152Z,93.08
2023-08-30T01:03:46.114Z,93.25
2023-08-30T01:06:17.644Z,93.37
2023-08-30T01:08:59.205Z,94.09
2023-08-30T01:15:32.074Z,93.13
2023-08-30T01:18:04.862Z,93.22
2023-08-30T01:20:44.104Z,93.25
2023-08-30T01:23:35.776Z,93.58
2023-08-30T01:26:09.116Z,93.54
2023-08-30T01:28:46.076Z,94.00
2023-08-30T01:31:24.040Z,93.84
2023-08-30T01:33:58.942Z,93.95
2023-08-30T01:36:40.345Z,94.22
2023-08-30T01:39:09.054Z,95.01
2023-08-30T01:41:44.281Z,95.10
2023-08-30T01:44:13.768Z,95.60
2023-08-30T01:46:47.981Z,95.57
2023-08-30T01:49:23.000Z,94.72
2023-08-30T01:52:15.039Z,94.80
2023-08-30T01:54:47.865Z,96.17
2023-08-30T01:57:22.040Z,96.11
2023-08-30T01:59:49.880Z,95.77
2023-08-30T02:02:32.231Z,95.41
2023-08-30T02:05:10.218Z,96.15
2023-08-30T02:07:46.377Z,95.54
2023-08-30T02:10:35.425Z,94.60
2023-08-30T02:13:13.224Z,95.55
2023-08-30T02:15:51.295Z,95.35
2023-08-30T02:18:19.935Z,95.10
2023-08-30T02:20:56.377Z,95.17
2023-08-30T02:23:26.500Z,95.17
2023-08-30T02:26:02.142Z,95.08
2023-08-30T02:28:29.865Z,95.18
2023-08-30T02:31:04.232Z,95.17
2023-08-30T02:33:31.934Z,95.17
2023-08-30T02:36:10.093Z,95.13
2023-08-30T02:38:44.161Z,95.95
2023-08-30T02:41:18.097Z,95.18
2023-08-30T02:43:52.154Z,95.05
2023-08-30T02:46:27.728Z,95.06
2023-08-30T02:51:58.175Z,94.92
2023-08-30T02:57:22.128Z,93.58
2023-08-30T02:59:52.970Z,93.90
2023-08-30T03:02:30.341Z,93.90
2023-08-30T03:04:58.143Z,92.91
2023-08-30T03:10:28.514Z,92.96
2023-08-30T03:12:56.237Z,92.95
2023-08-30T03:18:10.419Z,92.85
2023-08-30T03:20:58.612Z,92.70
2023-08-30T03:23:28.722Z,92.30
2023-08-30T03:28:50.544Z,92.17
2023-08-30T03:31:29.179Z,92.33
2023-08-30T03:34:02.970Z,92.28
2023-08-30T03:39:19.187Z,92.84
2023-08-30T03:41:54.358Z,92.32
2023-08-30T03:50:08.194Z,92.09
2023-08-30T03:52:43.113Z,92.50
2023-08-30T03:55:11.215Z,92.86
2023-08-30T03:57:48.201Z,92.96
2023-08-30T04:00:18.828Z,92.62
2023-08-30T04:02:55.986Z,93.18
2023-08-30T04:05:29.120Z,93.93
2023-08-30T04:08:03.370Z,93.91
2023-08-30T04:10:48.327Z,93.64
2023-08-30T04:13:28.145Z,94.30
2023-08-30T04:16:04.189Z,95.03
2023-08-30T04:18:34.532Z,95.89
2023-08-30T04:21:10.240Z,94.56
2023-08-30T04:23:46.202Z,94.91
2023-08-30T04:26:13.677Z,95.77
2023-08-30T04:38:56.236Z,95.69
2023-08-30T04:47:56.106Z,97.29
2023-08-30T04:50:46.406Z,97.00
2023-08-30T04:53:16.699Z,97.12
2023-08-30T04:55:53.351Z,96.86
2023-08-30T04:58:36.354Z,97.47
2023-08-30T05:01:06.908Z,97.59
2023-08-30T05:03:41.265Z,97.82
2023-08-30T05:06:13.575Z,97.45
2023-08-30T05:08:47.175Z,97.79
2023-08-30T05:11:23.168Z,98.30
2023-08-30T05:14:00.220Z,98.57
2023-08-30T05:16:30.212Z,98.48
2023-08-30T05:19:04.196Z,98.42
2023-08-30T05:21:34.555Z,98.50
2023-08-30T05:26:52.603Z,98.82
2023-08-30T05:29:29.232Z,98.89
2023-08-30T05:31:56.822Z,98.93
2023-08-30T05:37:08.313Z,98.86
2023-08-30T05:39:45.283Z,98.07
2023-08-30T05:42:20.268Z,97.96
2023-08-30T05:44:50.478Z,98.13
2023-08-30T05:47:27.138Z,97.64
2023-08-30T05:50:07.704Z,98.31
2023-08-30T05:52:49.253Z,98.50
2023-08-30T05:55:25.021Z,98.65
2023-08-30T05:58:01.298Z,99.15
2023-08-30T06:00:29.236Z,99.41
2023-08-30T06:03:06.164Z,99.47
2023-08-30T06:05:37.648Z,99.16
2023-08-30T06:08:15.272Z,98.56
2023-08-30T06:10:49.013Z,98.91
2023-08-30T06:13:23.275Z,98.17
2023-08-30T06:16:00.569Z,97.96
2023-08-30T06:18:36.238Z,97.98
2023-08-30T06:21:15.779Z,98.06
2023-08-30T06:23:43.202Z,96.72
2023-08-30T06:26:19.152Z,96.67
2023-08-30T06:29:03.663Z,96.54
2023-08-30T06:31:40.355Z,96.44
2023-08-30T06:37:05.437Z,95.54
2023-08-30T06:39:37.986Z,95.25
2023-08-30T06:42:12.283Z,94.52
2023-08-30T06:44:48.228Z,94.45
2023-08-30T06:47:21.077Z,94.49
2023-08-30T06:50:19.455Z,93.57
2023-08-30T06:52:53.277Z,93.16
2023-08-30T06:55:30.350Z,92.09
2023-08-30T06:58:07.922Z,91.37
2023-08-30T07:00:39.028Z,90.82
2023-08-30T07:03:13.311Z,90.32
2023-08-30T07:05:45.179Z,90.03
2023-08-30T07:08:19.336Z,88.91
2023-08-30T07:10:50.207Z,88.48
2023-08-30T07:13:34.158Z,88.23
2023-08-30T07:16:07.992Z,87.13
2023-08-30T07:18:42.282Z,87.08
2023-08-30T07:21:13.175Z,86.16
2023-08-30T07:23:47.147Z,84.59
2023-08-30T07:26:22.412Z,83.31
2023-08-30T07:28:59.346Z,82.94
2023-08-30T07:31:35.378Z,83.09
2023-08-30T07:34:14.834Z,83.53
2023-08-30T07:36:47.748Z,83.35
2023-08-30T07:39:23.345Z,83.13
2023-08-30T07:41:51.109Z,83.49
2023-08-30T07:44:25.269Z,83.96
2023-08-30T07:46:59.249Z,84.60
2023-08-30T07:49:43.587Z,85.05
2023-08-30T07:52:43.679Z,85.14
2023-08-30T07:55:23.326Z,86.04
2023-08-30T07:57:50.881Z,86.55
2023-08-30T08:00:27.437Z,86.38
2023-08-30T08:02:57.614Z,86.21
2023-08-30T08:05:25.214Z,86.34
2023-08-30T08:08:01.437Z,86.74
2023-08-30T08:10:32.020Z,86.22
2023-08-30T08:13:08.462Z,85.67
2023-08-30T08:15:46.594Z,85.86
2023-08-30T08:18:26.564Z,85.96
2023-08-30T08:20:54.604Z,85.46
2023-08-30T08:23:29.141Z,85.79
2023-08-30T08:26:04.179Z,86.13
2023-08-30T08:28:38.582Z,86.31
2023-08-30T08:31:12.935Z,86.01
2023-08-30T08:33:47.454Z,86.28
2023-08-30T08:36:14.765Z,85.87
2023-08-30T08:38:50.761Z,86.18
2023-08-30T08:41:32.357Z,86.16
2023-08-30T08:44:10.270Z,86.38
2023-08-30T08:46:48.365Z,87.41
2023-08-30T08:49:38.776Z,88.36
2023-08-30T08:52:28.033Z,90.01
2023-08-30T08:55:07.206Z,89.18
2023-08-30T08:57:34.728Z,90.49
2023-08-30T09:00:19.208Z,90.75
2023-08-30T09:02:54.634Z,91.09
2023-08-30T09:05:23.916Z,92.53
2023-08-30T09:08:01.232Z,92.32
2023-08-30T09:10:29.140Z,93.21
2023-08-30T09:13:02.225Z,94.83
2023-08-30T09:15:36.277Z,95.51
2023-08-30T09:18:10.140Z,96.39
2023-08-30T09:20:36.992Z,96.37
2023-08-30T09:23:10.554Z,96.40
2023-08-30T09:25:37.746Z,95.58
2023-08-30T09:28:11.220Z,95.81
2023-08-30T09:30:38.330Z,96.08
2023-08-30T09:33:12.433Z,96.24
2023-08-30T09:35:48.905Z,97.06
2023-08-30T09:38:27.155Z,97.57
2023-08-30T09:41:05.484Z,96.96
2023-08-30T09:43:41.227Z,97.98
2023-08-30T09:46:15.242Z,97.61
2023-08-30T09:48:42.776Z,98.67
2023-08-30T09:51:17.402Z,99.32
2023-08-30T09:56:44.276Z,100.00
2023-08-30T09:59:16.136Z,100.00
2023-08-30T10:01:51.225Z,100.00
2023-08-30T10:04:27.360Z,100.00
2023-08-30T10:06:57.193Z,100.00
2023-08-30T10:09:32.200Z,100.00
2023-08-30T10:12:09.240Z,100.00
2023-08-30T10:14:43.186Z,100.00
2023-08-30T10:17:13.729Z,100.00
2023-08-30T10:19:42.325Z,99.43
2023-08-30T10:22:23.159Z,100.00
2023-08-30T10:25:10.113Z,100.00
2023-08-30T10:27:49.225Z,100.00
2023-08-30T10:30:18.290Z,100.00
2023-08-30T10:32:52.246Z,100.00
2023-08-30T10:35:27.295Z,100.00
2023-08-30T10:38:07.308Z,100.00
2023-08-30T10:40:34.192Z,100.00
2023-08-30T10:43:11.446Z,100.00
2023-08-30T10:45:38.508Z,100.00
2023-08-30T10:48:12.375Z,100.00
2023-08-30T10:50:45.814Z,100.00
2023-08-30T10:53:22.186Z,100.00
2023-08-30T10:56:05.155Z,100.00
2023-08-30T10:58:51.239Z,100.00
2023-08-30T11:01:25.274Z,100.00
2023-08-30T11:04:13.445Z,100.00
2023-08-30T11:06:54.778Z,100.00
2023-08-30T11:09:31.297Z,100.00
2023-08-30T11:11:58.376Z,100.00
2023-08-30T11:14:32.264Z,100.00
2023-08-30T11:16:59.232Z,100.00
2023-08-30T11:19:38.292Z,100.00
2023-08-30T11:22:12.287Z,100.00
2023-08-30T11:24:39.313Z,100.00
2023-08-30T11:27:13.252Z,100.00
2023-08-30T11:29:41.690Z,100.00
2023-08-30T11:32:18.287Z,100.00
2023-08-30T11:34:46.349Z,100.00
2023-08-30T11:37:23.284Z,100.00
2023-08-30T11:39:54.037Z,100.00
2023-08-30T11:42:30.441Z,100.00
2023-08-30T11:44:59.636Z,100.00
2023-08-30T11:47:37.906Z,100.00
2023-08-30T11:50:13.944Z,100.00
2023-08-30T11:52:48.272Z,100.00
2023-08-30T11:55:26.819Z,100.00
2023-08-30T11:58:08.823Z,100.00
2023-08-30T12:00:40.294Z,100.00
2023-08-30T12:03:17.493Z,100.00
2023-08-30T12:05:52.470Z,100.00
2023-08-30T12:08:37.369Z,100.00
2023-08-30T12:11:07.735Z,100.00
2023-08-30T12:13:45.419Z,100.00
2023-08-30T12:16:25.369Z,100.00
2023-08-30T12:18:53.227Z,100.00
2023-08-30T12:21:30.455Z,100.00
2023-08-30T12:24:07.456Z,100.00
2023-08-30T12:29:25.645Z,100.00
2023-08-30T12:31:59.454Z,100.00
2023-08-30T12:34:27.162Z,100.00
2023-08-30T12:39:35.220Z,100.00
2023-08-30T12:42:12.823Z,99.51
2023-08-30T12:44:43.643Z,99.59
2023-08-30T12:47:10.958Z,98.72
2023-08-30T12:49:45.413Z,98.73
2023-08-30T12:52:27.040Z,98.37
2023-08-30T12:54:55.578Z,98.79
2023-08-30T13:00:23.462Z,100.00
2023-08-30T13:02:54.476Z,100.00
2023-08-30T13:05:34.006Z,100.00
2023-08-30T13:08:08.550Z,100.00
2023-08-30T13:10:36.044Z,100.00
2023-08-30T13:13:10.822Z,99.52
2023-08-30T13:15:50.214Z,100.00
2023-08-30T13:18:24.186Z,93.91
2023-08-30T13:20:58.654Z,95.20
2023-08-30T13:23:28.323Z,91.00
2023-08-30T13:26:02.744Z,90.20
2023-08-30T13:28:31.244Z,89.08
2023-08-30T13:31:05.647Z,87.53
2023-08-30T13:33:33.117Z,85.62
2023-08-30T13:36:09.206Z,86.01
2023-08-30T13:38:43.482Z,87.51
2023-08-30T13:41:10.955Z,88.70
2023-08-30T13:43:44.386Z,83.57
2023-08-30T13:46:12.463Z,83.75
2023-08-30T13:48:46.731Z,80.99
2023-08-30T13:51:54.532Z,84.65
2023-08-30T13:54:28.642Z,80.04
2023-08-30T13:56:58.585Z,78.46
2023-08-30T13:59:36.767Z,75.52
2023-08-30T14:02:05.715Z,73.16
2023-08-30T14:04:40.731Z,69.49
2023-08-30T14:07:13.808Z,72.17
2023-08-30T14:09:47.378Z,67.86
2023-08-30T14:12:21.281Z,69.67
2023-08-30T14:14:57.473Z,64.02
2023-08-30T14:17:33.950Z,66.17
2023-08-30T14:20:10.221Z,64.76
2023-08-30T14:22:44.434Z,64.38
2023-08-30T14:25:24.581Z,64.46
2023-08-30T14:27:51.776Z,58.47
2023-08-30T14:30:26.410Z,62.05
2023-08-30T14:33:09.062Z,58.92
2023-08-30T14:35:35.945Z,55.38
2023-08-30T14:38:12.598Z,55.95
2023-08-30T14:40:39.991Z,56.50
2023-08-30T14:43:18.357Z,55.72
2023-08-30T14:45:48.338Z,56.85
2023-08-30T14:48:24.405Z,58.37
2023-08-30T14:51:13.318Z,57.82
2023-08-30T14:53:47.675Z,55.92
2023-08-30T14:56:14.632Z,58.19
2023-08-30T14:58:48.419Z,58.82
2023-08-30T15:01:24.387Z,60.69
2023-08-30T15:03:51.508Z,62.22
2023-08-30T15:06:25.395Z,62.07
2023-08-30T15:08:52.541Z,63.28
2023-08-30T15:14:07.356Z,66.08
2023-08-30T15:16:34.535Z,64.34
2023-08-30T15:19:01.577Z,58.33
2023-08-30T15:21:35.669Z,55.27
2023-08-30T15:24:02.841Z,56.79
2023-08-30T15:26:41.043Z,55.35
2023-08-30T15:29:08.587Z,54.13
2023-08-30T15:35:17.761Z,54.63
2023-08-30T15:37:51.379Z,58.11
2023-08-30T15:40:27.602Z,58.82
2023-08-30T15:43:01.743Z,59.74
2023-08-30T15:45:33.544Z,61.49
2023-08-30T15:48:07.463Z,62.52
2023-08-30T15:50:57.573Z,60.61
2023-08-30T15:53:31.431Z,62.05
2023-08-30T15:56:04.455Z,62.68
2023-08-30T15:58:38.369Z,62.78
2023-08-30T16:01:07.011Z,63.29
2023-08-30T16:03:43.630Z,64.30
2023-08-30T16:06:13.786Z,65.78
2023-08-30T16:08:54.653Z,66.96
2023-08-30T16:11:22.227Z,67.16
2023-08-30T16:14:08.833Z,68.32
2023-08-30T16:16:36.192Z,68.89
2023-08-30T16:19:10.390Z,68.86
2023-08-30T16:21:40.965Z,68.43
2023-08-30T16:24:17.590Z,68.57
2023-08-30T16:26:51.464Z,67.02
2023-08-30T16:29:19.003Z,67.46
2023-08-30T16:31:52.522Z,68.60
2023-08-30T16:34:21.309Z,69.98
2023-08-30T16:36:58.516Z,70.32
2023-08-30T16:39:26.779Z,70.52
2023-08-30T16:42:04.683Z,71.40
2023-08-30T16:44:32.132Z,72.21
2023-08-30T16:47:05.578Z,70.64
2023-08-30T16:49:33.070Z,71.77
2023-08-30T16:52:18.768Z,72.06
2023-08-30T16:54:52.465Z,73.74
2023-08-30T16:57:19.975Z,74.13
2023-08-30T16:59:56.543Z,75.47
2023-08-30T17:02:24.406Z,75.69
2023-08-30T17:04:59.629Z,75.48
2023-08-30T17:07:32.277Z,76.17
2023-08-30T17:10:06.657Z,77.82
2023-08-30T17:12:39.609Z,77.31
2023-08-30T17:15:21.754Z,76.32
2023-08-30T17:17:49.153Z,76.62
2023-08-30T17:20:27.043Z,76.38
2023-08-30T17:22:54.460Z,76.42
2023-08-30T17:25:30.554Z,76.43
2023-08-30T17:27:57.786Z,76.64
2023-08-30T17:30:32.715Z,76.69
2023-08-30T17:33:00.637Z,77.03
2023-08-30T17:35:37.666Z,76.64
2023-08-30T17:41:01.799Z,76.64
2023-08-30T17:43:38.611Z,77.14
2023-08-30T17:46:06.230Z,76.79
2023-08-30T17:48:41.591Z,77.79
2023-08-30T17:51:15.888Z,77.76
2023-08-30T17:53:58.705Z,77.72
2023-08-30T17:56:26.745Z,77.49
2023-08-30T17:59:00.620Z,78.42
2023-08-30T18:01:28.909Z,78.09
2023-08-30T18:04:02.728Z,79.00
2023-08-30T18:06:30.185Z,78.69
2023-08-30T18:09:06.005Z,79.10
2023-08-30T18:11:33.713Z,80.22
2023-08-30T18:14:10.563Z,79.78
2023-08-30T18:16:38.273Z,80.68
2023-08-30T18:19:12.811Z,80.38
2023-08-30T18:21:40.571Z,81.20
2023-08-30T18:24:31.640Z,81.02
2023-08-30T18:27:14.670Z,81.10
2023-08-30T18:29:46.622Z,80.92
2023-08-30T18:32:20.686Z,81.61
2023-08-30T18:34:51.822Z,81.34
2023-08-30T18:37:30.569Z,82.17
2023-08-30T18:39:58.147Z,82.53
2023-08-30T18:42:33.744Z,82.87
2023-08-30T18:45:01.588Z,83.22
2023-08-30T18:47:41.767Z,84.44
2023-08-30T18:53:02.727Z,84.45
2023-08-30T18:58:19.653Z,85.57
2023-08-30T19:00:55.738Z,86.13
2023-08-30T19:03:29.669Z,85.90
2023-08-30T19:08:43.859Z,86.75
2023-08-30T19:11:12.279Z,86.45
2023-08-30T19:13:54.874Z,86.27
2023-08-30T19:16:24.629Z,86.08
2023-08-30T19:18:58.598Z,85.74
2023-08-30T19:21:37.747Z,86.32
2023-08-30T19:24:14.816Z,87.56
2023-08-30T19:26:48.666Z,87.50
2023-08-30T19:29:22.625Z,86.26
2023-08-30T19:31:56.682Z,87.33
2023-08-30T19:34:25.642Z,87.69
2023-08-30T19:36:59.640Z,86.75
2023-08-30T19:39:34.102Z,87.03
2023-08-30T19:42:07.685Z,87.60
2023-08-30T19:44:37.444Z,88.49
2023-08-30T19:47:20.620Z,88.11
2023-08-30T19:49:50.014Z,88.42
2023-08-30T19:52:25.594Z,89.16
2023-08-30T19:54:59.814Z,87.82
2023-08-30T19:57:36.699Z,88.31
2023-08-30T20:00:04.769Z,89.19
2023-08-30T20:02:38.702Z,89.46
2023-08-30T20:05:12.664Z,90.14
2023-08-30T20:07:46.584Z,91.14
2023-08-30T20:10:14.173Z,90.76
2023-08-30T20:15:31.474Z,90.93
2023-08-30T20:18:13.911Z,91.35
2023-08-30T20:20:52.838Z,92.05
2023-08-30T20:23:26.779Z,92.82
2023-08-30T20:26:04.726Z,93.19
2023-08-30T20:28:32.441Z,92.42
2023-08-30T20:31:09.621Z,93.18
2023-08-30T20:33:39.390Z,93.90
2023-08-30T20:36:17.529Z,93.08
2023-08-30T20:38:47.219Z,92.78
2023-08-30T20:47:42.695Z,94.24
2023-08-30T20:50:17.727Z,93.98
2023-08-30T20:53:00.559Z,94.02
2023-08-30T20:55:44.698Z,93.98
2023-08-30T20:58:12.249Z,94.39
2023-08-30T21:00:40.324Z,94.79
2023-08-30T21:03:14.979Z,94.46
2023-08-30T21:05:45.928Z,93.93
2023-08-30T21:08:19.683Z,94.99
2023-08-30T21:10:52.793Z,96.14
2023-08-30T21:13:26.817Z,95.19
2023-08-30T21:16:01.558Z,94.79
2023-08-30T21:21:17.723Z,95.05
2023-08-30T21:23:51.747Z,94.99
2023-08-30T21:26:25.143Z,94.83
2023-08-30T21:29:00.595Z,94.68
2023-08-30T21:31:33.944Z,95.18
2023-08-30T21:34:10.761Z,94.63
2023-08-30T21:36:38.084Z,95.40
2023-08-30T21:39:27.641Z,94.97
2023-08-30T21:42:02.873Z,94.46
2023-08-30T21:44:30.500Z,96.23
2023-08-30T21:47:08.001Z,96.01
2023-08-30T21:49:41.788Z,96.44
2023-08-30T21:52:15.641Z,96.88
2023-08-30T21:54:51.944Z,96.63
2023-08-30T21:57:26.860Z,96.37
2023-08-30T21:59:57.298Z,96.42
2023-08-30T22:02:33.759Z,96.96
2023-08-30T22:05:01.548Z,96.93
2023-08-30T22:07:37.274Z,97.70
2023-08-30T22:10:07.900Z,97.26
2023-08-30T22:12:41.759Z,96.67
2023-08-30T22:15:25.917Z,96.99
2023-08-30T22:17:59.886Z,97.45
2023-08-30T22:20:34.881Z,96.75
2023-08-30T22:23:11.953Z,97.12
2023-08-30T22:25:40.947Z,96.78
2023-08-30T22:28:14.753Z,97.21
2023-08-30T22:30:51.784Z,96.91
2023-08-30T22:36:06.814Z,97.09
2023-08-30T22:38:45.755Z,97.21
2023-08-30T22:41:13.531Z,97.25
2023-08-30T22:43:50.817Z,97.34
2023-08-30T22:49:05.911Z,97.44
2023-08-30T22:51:57.764Z,96.65
2023-08-30T22:54:47.936Z,96.64
2023-08-30T22:57:25.345Z,96.56
2023-08-30T22:59:53.113Z,96.47
2023-08-30T23:02:37.759Z,96.73
2023-08-30T23:05:08.964Z,96.54
2023-08-30T23:07:42.941Z,96.12
2023-08-30T23:10:12.369Z,96.30
2023-08-30T23:12:48.843Z,95.91
2023-08-30T23:15:23.120Z,95.91
2023-08-30T23:18:00.007Z,95.46
2023-08-30T23:20:37.498Z,95.05
2023-08-30T23:23:14.792Z,94.93
2023-08-30T23:25:48.418Z,95.14
2023-08-30T23:28:23.113Z,95.75
2023-08-30T23:30:57.333Z,95.78
2023-08-30T23:33:36.879Z,96.01
2023-08-30T23:36:13.860Z,96.21
2023-08-30T23:38:49.686Z,96.38
2023-08-30T23:41:29.237Z,95.88
2023-08-30T23:43:56.991Z,96.21
2023-08-30T23:49:22.936Z,96.57
2023-08-30T23:51:57.060Z,96.09
2023-08-30T23:54:40.705Z,96.24
2023-08-30T23:57:16.985Z,97.15
2023-08-30T23:59:53.840Z,97.16
